sensor_id;sensor_type;location;lat;lon;timestamp;P1;durP1;ratioP1;P2;durP2;ratioP2
14554;SDS011;7364;50.870;4.722;2022-10-14T00:01:01;11.27;;;8.43;;
14554;SDS011;7364;50.870;4.722;2022-10-14T00:03:29;9.67;;;8.77;;
14554;SDS011;7364;50.870;4.722;2022-10-14T00:05:56;13.13;;;10.00;;
14554;SDS011;7364;50.870;4.722;2022-10-14T00:08:26;10.60;;;8.87;;
14554;SDS011;7364;50.870;4.722;2022-10-14T00:10:53;10.87;;;8.87;;
14554;SDS011;7364;50.870;4.722;2022-10-14T00:13:22;10.03;;;9.03;;
14554;SDS011;7364;50.870;4.722;2022-10-14T00:15:49;10.27;;;9.23;;
14554;SDS011;7364;50.870;4.722;2022-10-14T00:18:16;12.67;;;9.27;;
14554;SDS011;7364;50.870;4.722;2022-10-14T00:20:43;9.60;;;8.27;;
14554;SDS011;7364;50.870;4.722;2022-10-14T00:23:19;10.90;;;7.80;;
14554;SDS011;7364;50.870;4.722;2022-10-14T00:25:46;10.07;;;8.57;;
14554;SDS011;7364;50.870;4.722;2022-10-14T00:28:14;9.47;;;8.40;;
14554;SDS011;7364;50.870;4.722;2022-10-14T00:30:42;9.80;;;8.53;;
14554;SDS011;7364;50.870;4.722;2022-10-14T00:33:19;9.63;;;7.60;;
14554;SDS011;7364;50.870;4.722;2022-10-14T00:35:52;11.30;;;8.13;;
14554;SDS011;7364;50.870;4.722;2022-10-14T00:38:21;10.10;;;8.23;;
14554;SDS011;7364;50.870;4.722;2022-10-14T00:40:48;9.03;;;8.07;;
14554;SDS011;7364;50.870;4.722;2022-10-14T00:43:16;8.97;;;8.13;;
14554;SDS011;7364;50.870;4.722;2022-10-14T00:45:44;8.73;;;7.83;;
14554;SDS011;7364;50.870;4.722;2022-10-14T00:48:11;8.47;;;7.57;;
14554;SDS011;7364;50.870;4.722;2022-10-14T00:50:40;10.57;;;8.50;;
14554;SDS011;7364;50.870;4.722;2022-10-14T00:53:10;9.83;;;8.83;;
14554;SDS011;7364;50.870;4.722;2022-10-14T00:55:39;9.43;;;7.47;;
14554;SDS011;7364;50.870;4.722;2022-10-14T00:58:08;10.03;;;9.03;;
14554;SDS011;7364;50.870;4.722;2022-10-14T01:00:36;9.13;;;8.13;;
14554;SDS011;7364;50.870;4.722;2022-10-14T01:03:07;12.50;;;8.40;;
14554;SDS011;7364;50.870;4.722;2022-10-14T01:05:38;9.13;;;8.23;;
14554;SDS011;7364;50.870;4.722;2022-10-14T01:08:12;10.43;;;9.33;;
14554;SDS011;7364;50.870;4.722;2022-10-14T01:10:46;9.47;;;8.43;;
14554;SDS011;7364;50.870;4.722;2022-10-14T01:13:20;9.70;;;8.63;;
14554;SDS011;7364;50.870;4.722;2022-10-14T01:15:54;11.80;;;9.27;;
14554;SDS011;7364;50.870;4.722;2022-10-14T01:18:37;9.07;;;8.00;;
14554;SDS011;7364;50.870;4.722;2022-10-14T01:21:19;9.27;;;8.20;;
14554;SDS011;7364;50.870;4.722;2022-10-14T01:27:16;9.03;;;8.13;;
14554;SDS011;7364;50.870;4.722;2022-10-14T01:29:56;9.40;;;7.97;;
14554;SDS011;7364;50.870;4.722;2022-10-14T01:32:29;10.47;;;9.03;;
14554;SDS011;7364;50.870;4.722;2022-10-14T01:35:00;11.10;;;8.17;;
14554;SDS011;7364;50.870;4.722;2022-10-14T01:37:32;9.77;;;7.73;;
14554;SDS011;7364;50.870;4.722;2022-10-14T01:40:03;10.67;;;8.17;;
14554;SDS011;7364;50.870;4.722;2022-10-14T01:42:34;9.87;;;8.10;;
14554;SDS011;7364;50.870;4.722;2022-10-14T01:45:06;10.07;;;8.40;;
14554;SDS011;7364;50.870;4.722;2022-10-14T01:47:38;9.07;;;7.47;;
14554;SDS011;7364;50.870;4.722;2022-10-14T01:50:08;8.40;;;7.60;;
14554;SDS011;7364;50.870;4.722;2022-10-14T01:52:45;11.03;;;7.63;;
14554;SDS011;7364;50.870;4.722;2022-10-14T01:55:17;9.17;;;7.60;;
14554;SDS011;7364;50.870;4.722;2022-10-14T01:57:48;10.47;;;7.70;;
14554;SDS011;7364;50.870;4.722;2022-10-14T02:00:20;11.23;;;8.23;;
14554;SDS011;7364;50.870;4.722;2022-10-14T02:02:47;9.90;;;8.90;;
14554;SDS011;7364;50.870;4.722;2022-10-14T02:05:16;9.20;;;7.83;;
14554;SDS011;7364;50.870;4.722;2022-10-14T02:07:47;11.70;;;9.07;;
14554;SDS011;7364;50.870;4.722;2022-10-14T02:10:20;10.60;;;8.23;;
14554;SDS011;7364;50.870;4.722;2022-10-14T02:13:02;12.77;;;8.93;;
14554;SDS011;7364;50.870;4.722;2022-10-14T02:15:44;11.60;;;9.27;;
14554;SDS011;7364;50.870;4.722;2022-10-14T02:18:22;10.03;;;8.97;;
14554;SDS011;7364;50.870;4.722;2022-10-14T02:20:57;12.87;;;9.67;;
14554;SDS011;7364;50.870;4.722;2022-10-14T02:23:29;11.53;;;9.83;;
14554;SDS011;7364;50.870;4.722;2022-10-14T02:26:01;11.07;;;9.97;;
14554;SDS011;7364;50.870;4.722;2022-10-14T02:28:29;11.87;;;8.70;;
14554;SDS011;7364;50.870;4.722;2022-10-14T02:31:01;10.87;;;9.67;;
14554;SDS011;7364;50.870;4.722;2022-10-14T02:33:35;11.10;;;9.17;;
14554;SDS011;7364;50.870;4.722;2022-10-14T02:36:08;12.00;;;9.93;;
14554;SDS011;7364;50.870;4.722;2022-10-14T02:38:37;11.93;;;9.43;;
14554;SDS011;7364;50.870;4.722;2022-10-14T02:41:06;11.60;;;9.57;;
14554;SDS011;7364;50.870;4.722;2022-10-14T02:43:39;12.07;;;9.60;;
14554;SDS011;7364;50.870;4.722;2022-10-14T02:46:07;9.83;;;8.50;;
14554;SDS011;7364;50.870;4.722;2022-10-14T02:48:35;11.63;;;9.57;;
14554;SDS011;7364;50.870;4.722;2022-10-14T02:51:02;9.80;;;8.23;;
14554;SDS011;7364;50.870;4.722;2022-10-14T02:53:29;8.97;;;7.20;;
14554;SDS011;7364;50.870;4.722;2022-10-14T02:55:57;10.93;;;8.70;;
14554;SDS011;7364;50.870;4.722;2022-10-14T02:58:24;8.90;;;7.97;;
14554;SDS011;7364;50.870;4.722;2022-10-14T03:00:51;10.90;;;7.77;;
14554;SDS011;7364;50.870;4.722;2022-10-14T03:03:20;8.87;;;7.93;;
14554;SDS011;7364;50.870;4.722;2022-10-14T03:05:48;9.70;;;8.60;;
14554;SDS011;7364;50.870;4.722;2022-10-14T03:08:15;8.40;;;7.60;;
14554;SDS011;7364;50.870;4.722;2022-10-14T03:10:46;8.83;;;8.00;;
14554;SDS011;7364;50.870;4.722;2022-10-14T03:13:14;8.13;;;7.07;;
14554;SDS011;7364;50.870;4.722;2022-10-14T03:15:41;9.30;;;7.47;;
14554;SDS011;7364;50.870;4.722;2022-10-14T03:18:08;10.27;;;7.73;;
14554;SDS011;7364;50.870;4.722;2022-10-14T03:20:37;8.03;;;7.23;;
14554;SDS011;7364;50.870;4.722;2022-10-14T03:23:04;7.53;;;6.50;;
14554;SDS011;7364;50.870;4.722;2022-10-14T03:25:33;8.27;;;6.70;;
14554;SDS011;7364;50.870;4.722;2022-10-14T03:28:03;9.60;;;5.83;;
14554;SDS011;7364;50.870;4.722;2022-10-14T03:30:30;6.87;;;6.17;;
14554;SDS011;7364;50.870;4.722;2022-10-14T03:32:57;8.03;;;6.90;;
14554;SDS011;7364;50.870;4.722;2022-10-14T03:35:24;7.80;;;6.57;;
14554;SDS011;7364;50.870;4.722;2022-10-14T03:37:53;7.93;;;6.67;;
14554;SDS011;7364;50.870;4.722;2022-10-14T03:40:20;7.20;;;6.20;;
14554;SDS011;7364;50.870;4.722;2022-10-14T03:42:48;7.93;;;6.57;;
14554;SDS011;7364;50.870;4.722;2022-10-14T03:45:15;7.57;;;6.77;;
14554;SDS011;7364;50.870;4.722;2022-10-14T03:47:42;8.37;;;7.03;;
14554;SDS011;7364;50.870;4.722;2022-10-14T03:50:09;7.53;;;6.63;;
14554;SDS011;7364;50.870;4.722;2022-10-14T03:52:41;7.70;;;6.93;;
14554;SDS011;7364;50.870;4.722;2022-10-14T03:55:10;7.03;;;6.03;;
14554;SDS011;7364;50.870;4.722;2022-10-14T03:57:37;10.83;;;6.37;;
14554;SDS011;7364;50.870;4.722;2022-10-14T04:00:04;7.90;;;6.23;;
14554;SDS011;7364;50.870;4.722;2022-10-14T04:02:33;10.93;;;7.57;;
14554;SDS011;7364;50.870;4.722;2022-10-14T04:05:00;10.67;;;7.67;;
14554;SDS011;7364;50.870;4.722;2022-10-14T04:07:27;10.60;;;7.60;;
14554;SDS011;7364;50.870;4.722;2022-10-14T04:09:54;10.23;;;7.10;;
14554;SDS011;7364;50.870;4.722;2022-10-14T04:12:23;7.87;;;6.57;;
14554;SDS011;7364;50.870;4.722;2022-10-14T04:14:50;9.20;;;7.60;;
14554;SDS011;7364;50.870;4.722;2022-10-14T04:17:20;7.90;;;7.10;;
14554;SDS011;7364;50.870;4.722;2022-10-14T04:19:49;13.13;;;8.13;;
14554;SDS011;7364;50.870;4.722;2022-10-14T04:22:16;10.23;;;7.40;;
14554;SDS011;7364;50.870;4.722;2022-10-14T04:24:45;12.17;;;8.00;;
14554;SDS011;7364;50.870;4.722;2022-10-14T04:27:12;8.27;;;7.37;;
14554;SDS011;7364;50.870;4.722;2022-10-14T04:29:41;8.33;;;7.10;;
14554;SDS011;7364;50.870;4.722;2022-10-14T04:32:08;8.83;;;7.93;;
14554;SDS011;7364;50.870;4.722;2022-10-14T04:34:35;11.73;;;9.03;;
14554;SDS011;7364;50.870;4.722;2022-10-14T04:37:02;9.07;;;8.17;;
14554;SDS011;7364;50.870;4.722;2022-10-14T04:39:29;9.30;;;8.30;;
14554;SDS011;7364;50.870;4.722;2022-10-14T04:41:56;10.90;;;8.17;;
14554;SDS011;7364;50.870;4.722;2022-10-14T04:44:24;11.97;;;9.00;;
14554;SDS011;7364;50.870;4.722;2022-10-14T04:46:52;11.70;;;8.50;;
14554;SDS011;7364;50.870;4.722;2022-10-14T04:49:21;12.33;;;9.47;;
14554;SDS011;7364;50.870;4.722;2022-10-14T04:51:48;13.17;;;10.17;;
14554;SDS011;7364;50.870;4.722;2022-10-14T04:54:15;11.40;;;10.17;;
14554;SDS011;7364;50.870;4.722;2022-10-14T04:56:42;12.67;;;10.00;;
14554;SDS011;7364;50.870;4.722;2022-10-14T04:59:09;10.27;;;9.10;;
14554;SDS011;7364;50.870;4.722;2022-10-14T05:01:38;12.60;;;11.03;;
14554;SDS011;7364;50.870;4.722;2022-10-14T05:04:06;18.53;;;11.63;;
14554;SDS011;7364;50.870;4.722;2022-10-14T05:06:34;15.17;;;11.40;;
14554;SDS011;7364;50.870;4.722;2022-10-14T05:09:02;13.73;;;10.00;;
14554;SDS011;7364;50.870;4.722;2022-10-14T05:11:30;13.57;;;10.70;;
14554;SDS011;7364;50.870;4.722;2022-10-14T05:13:57;13.93;;;10.13;;
14554;SDS011;7364;50.870;4.722;2022-10-14T05:16:24;13.10;;;9.80;;
14554;SDS011;7364;50.870;4.722;2022-10-14T05:18:52;12.10;;;9.87;;
14554;SDS011;7364;50.870;4.722;2022-10-14T05:21:21;12.33;;;9.90;;
14554;SDS011;7364;50.870;4.722;2022-10-14T05:23:49;16.30;;;10.60;;
14554;SDS011;7364;50.870;4.722;2022-10-14T05:26:16;12.77;;;10.20;;
14554;SDS011;7364;50.870;4.722;2022-10-14T05:28:43;12.77;;;10.30;;
14554;SDS011;7364;50.870;4.722;2022-10-14T05:31:10;13.57;;;10.80;;
14554;SDS011;7364;50.870;4.722;2022-10-14T05:33:38;13.80;;;10.03;;
14554;SDS011;7364;50.870;4.722;2022-10-14T05:36:05;11.60;;;10.13;;
14554;SDS011;7364;50.870;4.722;2022-10-14T05:38:34;12.30;;;10.37;;
14554;SDS011;7364;50.870;4.722;2022-10-14T05:41:02;14.13;;;10.87;;
14554;SDS011;7364;50.870;4.722;2022-10-14T05:43:29;13.57;;;10.43;;
14554;SDS011;7364;50.870;4.722;2022-10-14T05:45:56;11.30;;;10.10;;
14554;SDS011;7364;50.870;4.722;2022-10-14T05:48:23;14.73;;;10.97;;
14554;SDS011;7364;50.870;4.722;2022-10-14T05:50:51;16.67;;;10.83;;
14554;SDS011;7364;50.870;4.722;2022-10-14T05:53:18;12.67;;;11.37;;
14554;SDS011;7364;50.870;4.722;2022-10-14T05:55:46;15.23;;;11.70;;
14554;SDS011;7364;50.870;4.722;2022-10-14T05:58:14;13.80;;;11.57;;
14554;SDS011;7364;50.870;4.722;2022-10-14T06:00:41;14.10;;;11.33;;
14554;SDS011;7364;50.870;4.722;2022-10-14T06:03:08;17.43;;;11.60;;
14554;SDS011;7364;50.870;4.722;2022-10-14T06:05:37;14.10;;;11.53;;
14554;SDS011;7364;50.870;4.722;2022-10-14T06:08:04;13.23;;;10.17;;
14554;SDS011;7364;50.870;4.722;2022-10-14T06:10:33;12.10;;;10.90;;
14554;SDS011;7364;50.870;4.722;2022-10-14T06:13:02;14.50;;;11.03;;
14554;SDS011;7364;50.870;4.722;2022-10-14T06:15:29;13.70;;;10.20;;
14554;SDS011;7364;50.870;4.722;2022-10-14T06:17:56;12.50;;;10.77;;
14554;SDS011;7364;50.870;4.722;2022-10-14T06:20:24;11.43;;;10.17;;
14554;SDS011;7364;50.870;4.722;2022-10-14T06:22:51;13.33;;;10.50;;
14554;SDS011;7364;50.870;4.722;2022-10-14T06:25:18;14.27;;;11.47;;
14554;SDS011;7364;50.870;4.722;2022-10-14T06:27:45;13.30;;;10.60;;
14554;SDS011;7364;50.870;4.722;2022-10-14T06:30:14;12.63;;;11.37;;
14554;SDS011;7364;50.870;4.722;2022-10-14T06:32:42;14.53;;;11.70;;
14554;SDS011;7364;50.870;4.722;2022-10-14T06:35:09;13.57;;;11.73;;
14554;SDS011;7364;50.870;4.722;2022-10-14T06:37:37;13.77;;;11.83;;
14554;SDS011;7364;50.870;4.722;2022-10-14T06:40:05;15.40;;;13.07;;
14554;SDS011;7364;50.870;4.722;2022-10-14T06:42:32;15.00;;;12.67;;
14554;SDS011;7364;50.870;4.722;2022-10-14T06:45:00;15.03;;;11.70;;
14554;SDS011;7364;50.870;4.722;2022-10-14T06:47:29;14.17;;;12.20;;
14554;SDS011;7364;50.870;4.722;2022-10-14T06:49:57;14.53;;;13.03;;
14554;SDS011;7364;50.870;4.722;2022-10-14T06:52:25;14.83;;;12.57;;
14554;SDS011;7364;50.870;4.722;2022-10-14T06:54:52;15.13;;;13.57;;
14554;SDS011;7364;50.870;4.722;2022-10-14T06:57:19;14.37;;;12.63;;
14554;SDS011;7364;50.870;4.722;2022-10-14T06:59:46;14.83;;;12.50;;
14554;SDS011;7364;50.870;4.722;2022-10-14T07:02:14;15.07;;;12.37;;
14554;SDS011;7364;50.870;4.722;2022-10-14T07:04:42;14.30;;;12.80;;
14554;SDS011;7364;50.870;4.722;2022-10-14T07:07:09;13.37;;;11.90;;
14554;SDS011;7364;50.870;4.722;2022-10-14T07:09:37;14.73;;;11.93;;
14554;SDS011;7364;50.870;4.722;2022-10-14T07:12:05;14.30;;;12.20;;
14554;SDS011;7364;50.870;4.722;2022-10-14T07:14:32;15.13;;;11.80;;
14554;SDS011;7364;50.870;4.722;2022-10-14T07:16:59;13.17;;;11.60;;
14554;SDS011;7364;50.870;4.722;2022-10-14T07:19:26;12.77;;;11.47;;
14554;SDS011;7364;50.870;4.722;2022-10-14T07:21:55;12.60;;;10.50;;
14554;SDS011;7364;50.870;4.722;2022-10-14T07:24:22;15.13;;;11.43;;
14554;SDS011;7364;50.870;4.722;2022-10-14T07:26:49;11.87;;;10.50;;
14554;SDS011;7364;50.870;4.722;2022-10-14T07:29:17;15.93;;;11.43;;
14554;SDS011;7364;50.870;4.722;2022-10-14T07:31:44;11.43;;;10.23;;
14554;SDS011;7364;50.870;4.722;2022-10-14T07:34:11;13.73;;;10.07;;
14554;SDS011;7364;50.870;4.722;2022-10-14T07:36:38;13.13;;;9.53;;
14554;SDS011;7364;50.870;4.722;2022-10-14T07:39:07;11.27;;;9.33;;
14554;SDS011;7364;50.870;4.722;2022-10-14T07:41:34;10.53;;;9.13;;
14554;SDS011;7364;50.870;4.722;2022-10-14T07:44:02;12.37;;;9.27;;
14554;SDS011;7364;50.870;4.722;2022-10-14T07:46:33;9.73;;;8.73;;
14554;SDS011;7364;50.870;4.722;2022-10-14T07:49:03;9.67;;;8.77;;
14554;SDS011;7364;50.870;4.722;2022-10-14T07:51:32;9.10;;;7.93;;
14554;SDS011;7364;50.870;4.722;2022-10-14T07:54:01;12.10;;;8.40;;
14554;SDS011;7364;50.870;4.722;2022-10-14T07:56:31;9.40;;;8.43;;
14554;SDS011;7364;50.870;4.722;2022-10-14T07:58:58;9.50;;;7.87;;
14554;SDS011;7364;50.870;4.722;2022-10-14T08:01:26;10.47;;;9.00;;
14554;SDS011;7364;50.870;4.722;2022-10-14T08:03:53;11.17;;;8.10;;
14554;SDS011;7364;50.870;4.722;2022-10-14T08:06:20;9.90;;;7.73;;
14554;SDS011;7364;50.870;4.722;2022-10-14T08:08:48;7.80;;;6.77;;
14554;SDS011;7364;50.870;4.722;2022-10-14T08:11:16;7.60;;;6.77;;
14554;SDS011;7364;50.870;4.722;2022-10-14T08:13:46;8.53;;;7.60;;
14554;SDS011;7364;50.870;4.722;2022-10-14T08:16:14;7.50;;;6.50;;
14554;SDS011;7364;50.870;4.722;2022-10-14T08:18:43;9.33;;;7.77;;
14554;SDS011;7364;50.870;4.722;2022-10-14T08:21:11;7.87;;;6.80;;
14554;SDS011;7364;50.870;4.722;2022-10-14T08:23:39;9.07;;;6.27;;
14554;SDS011;7364;50.870;4.722;2022-10-14T08:26:13;7.70;;;5.77;;
14554;SDS011;7364;50.870;4.722;2022-10-14T08:28:48;7.03;;;5.30;;
14554;SDS011;7364;50.870;4.722;2022-10-14T08:31:17;8.03;;;5.37;;
14554;SDS011;7364;50.870;4.722;2022-10-14T08:33:45;8.03;;;5.97;;
14554;SDS011;7364;50.870;4.722;2022-10-14T08:36:13;6.53;;;5.40;;
14554;SDS011;7364;50.870;4.722;2022-10-14T08:38:41;5.87;;;4.90;;
14554;SDS011;7364;50.870;4.722;2022-10-14T08:41:15;6.00;;;4.83;;
14554;SDS011;7364;50.870;4.722;2022-10-14T08:43:53;4.93;;;4.07;;
14554;SDS011;7364;50.870;4.722;2022-10-14T08:46:33;5.90;;;4.57;;
14554;SDS011;7364;50.870;4.722;2022-10-14T08:49:09;6.40;;;5.10;;
14554;SDS011;7364;50.870;4.722;2022-10-14T08:51:39;5.83;;;4.90;;
14554;SDS011;7364;50.870;4.722;2022-10-14T08:54:10;6.17;;;4.47;;
14554;SDS011;7364;50.870;4.722;2022-10-14T08:56:41;5.37;;;4.03;;
14554;SDS011;7364;50.870;4.722;2022-10-14T08:59:11;4.77;;;4.03;;
14554;SDS011;7364;50.870;4.722;2022-10-14T09:01:43;5.87;;;4.03;;
14554;SDS011;7364;50.870;4.722;2022-10-14T09:04:17;5.57;;;4.33;;
14554;SDS011;7364;50.870;4.722;2022-10-14T09:06:46;5.13;;;4.33;;
14554;SDS011;7364;50.870;4.722;2022-10-14T09:09:17;6.03;;;3.73;;
14554;SDS011;7364;50.870;4.722;2022-10-14T09:11:50;5.77;;;3.63;;
14554;SDS011;7364;50.870;4.722;2022-10-14T09:14:23;5.20;;;4.07;;
14554;SDS011;7364;50.870;4.722;2022-10-14T09:16:56;6.37;;;4.07;;
14554;SDS011;7364;50.870;4.722;2022-10-14T09:19:32;4.90;;;3.60;;
14554;SDS011;7364;50.870;4.722;2022-10-14T09:22:08;4.33;;;3.43;;
14554;SDS011;7364;50.870;4.722;2022-10-14T09:24:40;5.23;;;4.00;;
14554;SDS011;7364;50.870;4.722;2022-10-14T09:27:14;3.67;;;3.33;;
14554;SDS011;7364;50.870;4.722;2022-10-14T09:29:49;5.70;;;3.37;;
14554;SDS011;7364;50.870;4.722;2022-10-14T09:32:25;5.13;;;3.57;;
14554;SDS011;7364;50.870;4.722;2022-10-14T09:34:57;4.20;;;3.50;;
14554;SDS011;7364;50.870;4.722;2022-10-14T09:37:27;5.63;;;3.83;;
14554;SDS011;7364;50.870;4.722;2022-10-14T09:39:58;5.03;;;4.20;;
14554;SDS011;7364;50.870;4.722;2022-10-14T09:42:31;8.37;;;4.20;;
14554;SDS011;7364;50.870;4.722;2022-10-14T09:45:11;5.73;;;3.43;;
14554;SDS011;7364;50.870;4.722;2022-10-14T09:47:48;5.60;;;3.90;;
14554;SDS011;7364;50.870;4.722;2022-10-14T09:50:22;3.23;;;2.50;;
14554;SDS011;7364;50.870;4.722;2022-10-14T09:52:59;5.53;;;3.10;;
14554;SDS011;7364;50.870;4.722;2022-10-14T09:55:29;6.70;;;3.57;;
14554;SDS011;7364;50.870;4.722;2022-10-14T09:57:59;3.93;;;3.10;;
14554;SDS011;7364;50.870;4.722;2022-10-14T10:00:33;3.50;;;2.87;;
14554;SDS011;7364;50.870;4.722;2022-10-14T10:03:02;3.97;;;3.17;;
14554;SDS011;7364;50.870;4.722;2022-10-14T10:05:32;3.87;;;2.77;;
14554;SDS011;7364;50.870;4.722;2022-10-14T10:08:02;3.57;;;3.10;;
14554;SDS011;7364;50.870;4.722;2022-10-14T10:10:31;3.30;;;3.00;;
14554;SDS011;7364;50.870;4.722;2022-10-14T10:13:00;3.87;;;2.73;;
14554;SDS011;7364;50.870;4.722;2022-10-14T10:15:27;3.33;;;2.97;;
14554;SDS011;7364;50.870;4.722;2022-10-14T10:17:56;5.47;;;3.27;;
14554;SDS011;7364;50.870;4.722;2022-10-14T10:20:24;3.17;;;2.67;;
14554;SDS011;7364;50.870;4.722;2022-10-14T10:23:10;3.47;;;2.73;;
14554;SDS011;7364;50.870;4.722;2022-10-14T10:25:54;3.97;;;2.73;;
14554;SDS011;7364;50.870;4.722;2022-10-14T10:28:25;3.27;;;2.60;;
14554;SDS011;7364;50.870;4.722;2022-10-14T10:31:02;3.80;;;2.50;;
14554;SDS011;7364;50.870;4.722;2022-10-14T10:33:45;3.47;;;2.70;;
14554;SDS011;7364;50.870;4.722;2022-10-14T10:36:21;5.07;;;2.63;;
14554;SDS011;7364;50.870;4.722;2022-10-14T10:38:59;2.90;;;2.33;;
14554;SDS011;7364;50.870;4.722;2022-10-14T10:41:41;2.77;;;2.03;;
14554;SDS011;7364;50.870;4.722;2022-10-14T10:44:34;2.63;;;2.30;;
14554;SDS011;7364;50.870;4.722;2022-10-14T10:47:30;4.73;;;2.10;;
14554;SDS011;7364;50.870;4.722;2022-10-14T10:55:49;3.20;;;2.33;;
14554;SDS011;7364;50.870;4.722;2022-10-14T10:58:26;3.60;;;1.93;;
14554;SDS011;7364;50.870;4.722;2022-10-14T11:01:27;3.67;;;2.33;;
14554;SDS011;7364;50.870;4.722;2022-10-14T11:04:20;2.50;;;1.97;;
14554;SDS011;7364;50.870;4.722;2022-10-14T11:06:59;3.47;;;1.93;;
14554;SDS011;7364;50.870;4.722;2022-10-14T11:09:56;2.77;;;2.10;;
14554;SDS011;7364;50.870;4.722;2022-10-14T11:12:51;2.40;;;2.07;;
14554;SDS011;7364;50.870;4.722;2022-10-14T11:15:28;4.57;;;2.40;;
14554;SDS011;7364;50.870;4.722;2022-10-14T11:18:08;3.33;;;2.10;;
14554;SDS011;7364;50.870;4.722;2022-10-14T11:20:43;3.87;;;2.20;;
14554;SDS011;7364;50.870;4.722;2022-10-14T11:23:37;3.77;;;2.40;;
14554;SDS011;7364;50.870;4.722;2022-10-14T11:26:19;2.53;;;1.83;;
14554;SDS011;7364;50.870;4.722;2022-10-14T11:29:00;2.47;;;1.87;;
14554;SDS011;7364;50.870;4.722;2022-10-14T11:31:35;2.90;;;2.03;;
14554;SDS011;7364;50.870;4.722;2022-10-14T11:34:19;2.50;;;1.67;;
14554;SDS011;7364;50.870;4.722;2022-10-14T11:37:02;1.83;;;1.30;;
14554;SDS011;7364;50.870;4.722;2022-10-14T11:39:39;4.47;;;1.50;;
14554;SDS011;7364;50.870;4.722;2022-10-14T11:42:16;3.63;;;1.43;;
14554;SDS011;7364;50.870;4.722;2022-10-14T11:44:55;2.77;;;1.70;;
14554;SDS011;7364;50.870;4.722;2022-10-14T11:47:31;2.97;;;1.70;;
14554;SDS011;7364;50.870;4.722;2022-10-14T11:50:02;2.63;;;1.57;;
14554;SDS011;7364;50.870;4.722;2022-10-14T11:52:40;1.90;;;1.47;;
14554;SDS011;7364;50.870;4.722;2022-10-14T11:55:14;2.10;;;1.50;;
14554;SDS011;7364;50.870;4.722;2022-10-14T11:57:46;3.27;;;1.50;;
14554;SDS011;7364;50.870;4.722;2022-10-14T12:00:18;3.03;;;1.60;;
14554;SDS011;7364;50.870;4.722;2022-10-14T12:02:49;2.00;;;1.70;;
14554;SDS011;7364;50.870;4.722;2022-10-14T12:05:24;1.73;;;1.20;;
14554;SDS011;7364;50.870;4.722;2022-10-14T12:08:04;2.43;;;1.30;;
14554;SDS011;7364;50.870;4.722;2022-10-14T12:10:43;3.43;;;2.03;;
14554;SDS011;7364;50.870;4.722;2022-10-14T12:13:14;2.20;;;1.33;;
14554;SDS011;7364;50.870;4.722;2022-10-14T12:15:46;1.80;;;1.67;;
14554;SDS011;7364;50.870;4.722;2022-10-14T12:18:21;2.63;;;1.60;;
14554;SDS011;7364;50.870;4.722;2022-10-14T12:20:49;1.80;;;1.43;;
14554;SDS011;7364;50.870;4.722;2022-10-14T12:23:25;3.67;;;1.53;;
14554;SDS011;7364;50.870;4.722;2022-10-14T12:25:59;2.50;;;1.97;;
14554;SDS011;7364;50.870;4.722;2022-10-14T12:28:32;2.93;;;2.30;;
14554;SDS011;7364;50.870;4.722;2022-10-14T12:36:55;6.83;;;3.80;;
14554;SDS011;7364;50.870;4.722;2022-10-14T12:39:32;6.93;;;4.57;;
14554;SDS011;7364;50.870;4.722;2022-10-14T12:42:07;7.90;;;4.20;;
14554;SDS011;7364;50.870;4.722;2022-10-14T12:44:43;5.83;;;4.70;;
14554;SDS011;7364;50.870;4.722;2022-10-14T12:47:16;10.07;;;5.43;;
14554;SDS011;7364;50.870;4.722;2022-10-14T12:49:46;5.60;;;5.07;;
14554;SDS011;7364;50.870;4.722;2022-10-14T12:52:18;7.63;;;5.77;;
14554;SDS011;7364;50.870;4.722;2022-10-14T12:54:49;7.77;;;6.50;;
14554;SDS011;7364;50.870;4.722;2022-10-14T12:57:24;6.30;;;5.50;;
14554;SDS011;7364;50.870;4.722;2022-10-14T12:59:54;8.60;;;6.73;;
14554;SDS011;7364;50.870;4.722;2022-10-14T13:02:28;7.73;;;6.07;;
14554;SDS011;7364;50.870;4.722;2022-10-14T13:05:00;9.67;;;6.20;;
14554;SDS011;7364;50.870;4.722;2022-10-14T13:07:42;7.37;;;6.60;;
14554;SDS011;7364;50.870;4.722;2022-10-14T13:10:47;7.43;;;6.03;;
14554;SDS011;7364;50.870;4.722;2022-10-14T13:13:53;6.53;;;5.87;;
14554;SDS011;7364;50.870;4.722;2022-10-14T13:25:15;6.93;;;6.20;;
14554;SDS011;7364;50.870;4.722;2022-10-14T13:27:57;6.67;;;6.07;;
14554;SDS011;7364;50.870;4.722;2022-10-14T13:30:57;7.10;;;6.37;;
14554;SDS011;7364;50.870;4.722;2022-10-14T13:33:36;7.97;;;6.33;;
14554;SDS011;7364;50.870;4.722;2022-10-14T13:36:11;7.77;;;6.27;;
14554;SDS011;7364;50.870;4.722;2022-10-14T13:38:44;6.23;;;5.63;;
14554;SDS011;7364;50.870;4.722;2022-10-14T13:41:27;7.67;;;6.10;;
14554;SDS011;7364;50.870;4.722;2022-10-14T13:44:00;9.27;;;6.93;;
14554;SDS011;7364;50.870;4.722;2022-10-14T13:46:38;7.13;;;6.27;;
14554;SDS011;7364;50.870;4.722;2022-10-14T13:49:12;7.60;;;6.80;;
14554;SDS011;7364;50.870;4.722;2022-10-14T13:51:57;8.07;;;6.67;;
14554;SDS011;7364;50.870;4.722;2022-10-14T13:54:30;9.77;;;6.90;;
14554;SDS011;7364;50.870;4.722;2022-10-14T13:57:13;9.13;;;5.80;;
14554;SDS011;7364;50.870;4.722;2022-10-14T13:59:55;6.80;;;6.00;;
14554;SDS011;7364;50.870;4.722;2022-10-14T14:05:51;6.40;;;5.80;;
14554;SDS011;7364;50.870;4.722;2022-10-14T14:08:21;7.10;;;5.80;;
14554;SDS011;7364;50.870;4.722;2022-10-14T14:11:05;7.60;;;6.80;;
14554;SDS011;7364;50.870;4.722;2022-10-14T14:13:36;7.63;;;6.13;;
14554;SDS011;7364;50.870;4.722;2022-10-14T14:16:31;8.87;;;6.57;;
14554;SDS011;7364;50.870;4.722;2022-10-14T14:19:01;7.17;;;6.27;;
14554;SDS011;7364;50.870;4.722;2022-10-14T14:21:43;11.13;;;7.17;;
14554;SDS011;7364;50.870;4.722;2022-10-14T14:24:22;10.07;;;6.80;;
14554;SDS011;7364;50.870;4.722;2022-10-14T14:26:53;6.97;;;5.87;;
14554;SDS011;7364;50.870;4.722;2022-10-14T14:29:23;7.53;;;6.50;;
14554;SDS011;7364;50.870;4.722;2022-10-14T14:31:53;10.37;;;5.40;;
14554;SDS011;7364;50.870;4.722;2022-10-14T14:34:36;6.37;;;5.27;;
14554;SDS011;7364;50.870;4.722;2022-10-14T14:37:10;8.33;;;5.77;;
14554;SDS011;7364;50.870;4.722;2022-10-14T14:39:55;7.60;;;5.20;;
14554;SDS011;7364;50.870;4.722;2022-10-14T14:42:29;9.83;;;5.23;;
14554;SDS011;7364;50.870;4.722;2022-10-14T14:45:06;7.13;;;5.27;;
14554;SDS011;7364;50.870;4.722;2022-10-14T14:47:48;6.50;;;4.43;;
14554;SDS011;7364;50.870;4.722;2022-10-14T14:50:19;5.97;;;4.80;;
14554;SDS011;7364;50.870;4.722;2022-10-14T14:53:09;7.23;;;4.77;;
14554;SDS011;7364;50.870;4.722;2022-10-14T14:55:45;5.63;;;5.00;;
14554;SDS011;7364;50.870;4.722;2022-10-14T14:58:26;7.63;;;5.10;;
14554;SDS011;7364;50.870;4.722;2022-10-14T15:00:57;5.20;;;4.70;;
14554;SDS011;7364;50.870;4.722;2022-10-14T15:03:26;7.47;;;5.10;;
14554;SDS011;7364;50.870;4.722;2022-10-14T15:05:58;6.43;;;4.87;;
14554;SDS011;7364;50.870;4.722;2022-10-14T15:08:34;6.10;;;5.40;;
14554;SDS011;7364;50.870;4.722;2022-10-14T15:11:03;6.63;;;5.00;;
14554;SDS011;7364;50.870;4.722;2022-10-14T15:13:43;6.93;;;4.70;;
14554;SDS011;7364;50.870;4.722;2022-10-14T15:16:30;5.10;;;4.23;;
14554;SDS011;7364;50.870;4.722;2022-10-14T15:19:24;6.40;;;4.90;;
14554;SDS011;7364;50.870;4.722;2022-10-14T15:24:58;6.13;;;5.20;;
14554;SDS011;7364;50.870;4.722;2022-10-14T15:30:22;6.17;;;5.30;;
14554;SDS011;7364;50.870;4.722;2022-10-14T15:32:54;6.77;;;5.73;;
14554;SDS011;7364;50.870;4.722;2022-10-14T15:35:24;6.40;;;5.70;;
14554;SDS011;7364;50.870;4.722;2022-10-14T15:37:52;7.43;;;6.50;;
14554;SDS011;7364;50.870;4.722;2022-10-14T15:40:25;7.00;;;5.93;;
14554;SDS011;7364;50.870;4.722;2022-10-14T15:43:07;7.67;;;6.50;;
14554;SDS011;7364;50.870;4.722;2022-10-14T15:45:40;9.47;;;7.13;;
14554;SDS011;7364;50.870;4.722;2022-10-14T15:48:35;6.57;;;5.90;;
14554;SDS011;7364;50.870;4.722;2022-10-14T15:51:05;6.73;;;5.47;;
14554;SDS011;7364;50.870;4.722;2022-10-14T15:53:32;7.10;;;6.37;;
14554;SDS011;7364;50.870;4.722;2022-10-14T15:56:01;7.37;;;5.63;;